createdAt,value
2023-04-23T00:01:30.666Z,6.00
2023-04-23T00:04:36.741Z,6.20
2023-04-23T00:07:39.134Z,6.07
2023-04-23T00:10:41.086Z,5.78
2023-04-23T00:13:43.025Z,5.57
2023-04-23T00:16:45.427Z,5.70
2023-04-23T00:19:47.642Z,5.82
2023-04-23T00:22:49.462Z,6.03
2023-04-23T00:25:51.298Z,6.07
2023-04-23T00:28:53.042Z,6.25
2023-04-23T00:31:55.192Z,6.40
2023-04-23T00:34:57.190Z,5.75
2023-04-23T00:37:59.088Z,6.07
2023-04-23T00:41:00.899Z,6.32
2023-04-23T00:44:03.620Z,6.70
2023-04-23T00:47:07.274Z,7.13
2023-04-23T00:50:09.778Z,7.10
2023-04-23T00:53:12.525Z,6.82
2023-04-23T00:56:14.874Z,6.50
2023-04-23T00:59:16.725Z,6.70
2023-04-23T01:02:18.723Z,6.63
2023-04-23T01:05:23.467Z,6.47
2023-04-23T01:08:26.351Z,7.00
2023-04-23T01:11:29.595Z,5.60
2023-04-23T01:14:31.702Z,6.18
2023-04-23T01:17:34.567Z,6.40
2023-04-23T01:20:37.673Z,6.47
2023-04-23T01:23:39.971Z,5.78
2023-04-23T01:26:42.322Z,6.15
2023-04-23T01:29:44.502Z,6.10
2023-04-23T01:32:48.606Z,5.65
2023-04-23T01:35:51.328Z,5.88
2023-04-23T01:38:53.293Z,5.65
2023-04-23T01:41:55.530Z,6.53
2023-04-23T01:44:57.535Z,5.72
2023-04-23T01:48:03.008Z,5.90
2023-04-23T01:51:05.050Z,6.32
2023-04-23T01:54:07.440Z,6.18
2023-04-23T01:57:10.356Z,5.72
2023-04-23T02:00:14.592Z,5.80
2023-04-23T02:03:17.078Z,6.22
2023-04-23T02:06:19.127Z,6.10
2023-04-23T02:09:21.379Z,6.53
2023-04-23T02:12:23.179Z,6.45
2023-04-23T02:15:25.870Z,6.47
2023-04-23T02:18:28.373Z,5.90
2023-04-23T02:21:31.642Z,6.60
2023-04-23T02:24:34.053Z,6.25
2023-04-23T02:27:36.069Z,6.18
2023-04-23T02:30:38.034Z,5.80
2023-04-23T02:33:42.600Z,6.00
2023-04-23T02:36:44.589Z,5.70
2023-04-23T02:39:46.529Z,6.10
2023-04-23T02:42:49.322Z,6.38
2023-04-23T02:45:51.173Z,6.10
2023-04-23T02:48:53.240Z,5.68
2023-04-23T02:51:55.365Z,5.63
2023-04-23T02:54:57.329Z,6.20
2023-04-23T02:57:59.964Z,6.43
2023-04-23T03:01:03.133Z,5.97
2023-04-23T03:04:05.469Z,5.93
2023-04-23T03:07:07.584Z,6.32
2023-04-23T03:10:09.934Z,6.82
2023-04-23T03:13:11.859Z,6.82
2023-04-23T03:16:14.188Z,6.60
2023-04-23T03:19:16.591Z,6.05
2023-04-23T03:22:18.351Z,5.50
2023-04-23T03:25:20.654Z,6.25
2023-04-23T03:28:22.500Z,6.43
2023-04-23T03:31:24.519Z,7.20
2023-04-23T03:34:26.970Z,5.80
2023-04-23T03:37:28.746Z,5.82
2023-04-23T03:40:33.193Z,7.05
2023-04-23T03:43:38.138Z,6.38
2023-04-23T03:46:39.927Z,6.07
2023-04-23T03:49:42.048Z,6.43
2023-04-23T03:52:43.968Z,6.45
2023-04-23T03:55:52.335Z,6.30
2023-04-23T03:58:54.360Z,7.05
2023-04-23T04:01:56.342Z,6.70
2023-04-23T04:05:01.546Z,7.25
2023-04-23T04:08:05.067Z,6.60
2023-04-23T04:11:06.782Z,7.00
2023-04-23T04:14:08.532Z,6.70
2023-04-23T04:17:10.652Z,7.38
2023-04-23T04:20:12.750Z,7.03
2023-04-23T04:23:14.501Z,6.93
2023-04-23T04:26:16.256Z,6.93
2023-04-23T04:29:18.153Z,6.53
2023-04-23T04:32:20.013Z,6.80
2023-04-23T04:35:22.059Z,7.40
2023-04-23T04:38:23.914Z,6.15
2023-04-23T04:41:26.161Z,6.72
2023-04-23T04:44:28.192Z,6.28
2023-04-23T04:47:29.951Z,6.50
2023-04-23T04:50:31.936Z,5.93
2023-04-23T04:53:36.074Z,6.10
2023-04-23T04:56:37.886Z,6.47
2023-04-23T04:59:40.250Z,5.95
2023-04-23T05:02:42.375Z,6.18
2023-04-23T05:05:45.323Z,6.40
2023-04-23T05:08:49.911Z,6.45
2023-04-23T05:11:52.002Z,6.70
2023-04-23T05:14:54.410Z,6.13
2023-04-23T05:17:56.676Z,6.28
2023-04-23T05:20:58.766Z,7.07
2023-04-23T05:24:00.731Z,6.10
2023-04-23T05:27:02.578Z,7.03
2023-04-23T05:30:06.629Z,5.95
2023-04-23T05:33:08.833Z,6.13
2023-04-23T05:36:10.917Z,6.15
2023-04-23T05:39:13.365Z,5.55
2023-04-23T05:42:15.155Z,6.22
2023-04-23T05:45:18.879Z,5.75
2023-04-23T05:48:20.816Z,6.00
2023-04-23T05:51:22.672Z,6.47
2023-04-23T05:54:24.385Z,6.30
2023-04-23T05:57:26.699Z,5.97
2023-04-23T06:00:30.108Z,5.32
2023-04-23T06:03:32.073Z,4.80
2023-04-23T06:06:34.025Z,5.32
2023-04-23T06:09:36.068Z,5.18
2023-04-23T06:12:39.933Z,6.30
2023-04-23T06:15:41.742Z,5.47
2023-04-23T06:18:43.581Z,5.00
2023-04-23T06:21:45.790Z,5.80
2023-04-23T06:24:47.763Z,5.93
2023-04-23T06:27:50.141Z,5.43
2023-04-23T06:30:56.047Z,6.13
2023-04-23T06:33:58.731Z,5.75
2023-04-23T06:37:00.775Z,6.43
2023-04-23T06:40:02.562Z,6.07
2023-04-23T06:43:05.400Z,5.53
2023-04-23T06:46:25.797Z,5.80
2023-04-23T06:49:27.617Z,5.45
2023-04-23T06:52:29.483Z,5.00
2023-04-23T06:55:33.388Z,6.03
2023-04-23T06:58:35.245Z,6.50
2023-04-23T07:01:47.668Z,5.90
2023-04-23T07:04:49.578Z,5.30
2023-04-23T07:07:51.419Z,5.00
2023-04-23T07:10:54.613Z,5.05
2023-04-23T07:13:56.629Z,4.53
2023-04-23T07:16:59.320Z,4.28
2023-04-23T07:20:04.885Z,4.40
2023-04-23T07:23:06.758Z,4.15
2023-04-23T07:26:09.707Z,4.30
2023-04-23T07:29:14.171Z,4.18
2023-04-23T07:32:16.611Z,4.18
2023-04-23T07:35:28.981Z,4.40
2023-04-23T07:38:37.244Z,3.97
2023-04-23T07:41:39.199Z,3.72
2023-04-23T07:44:41.157Z,4.28
2023-04-23T07:47:46.622Z,3.80
2023-04-23T07:50:48.726Z,4.32
2023-04-23T07:53:54.251Z,4.63
2023-04-23T07:56:57.368Z,3.80
2023-04-23T08:00:00.970Z,4.50
2023-04-23T08:03:02.804Z,4.03
2023-04-23T08:06:04.942Z,4.20
2023-04-23T08:09:06.766Z,4.45
2023-04-23T08:12:08.553Z,4.38
2023-04-23T08:15:10.869Z,4.57
2023-04-23T08:18:16.104Z,4.90
2023-04-23T08:21:17.957Z,4.00
2023-04-23T08:24:19.693Z,5.13
2023-04-23T08:27:22.806Z,4.57
2023-04-23T08:30:25.854Z,4.68
2023-04-23T08:33:30.114Z,4.65
2023-04-23T08:36:32.445Z,4.50
2023-04-23T08:39:34.989Z,4.90
2023-04-23T08:42:53.697Z,4.63
2023-04-23T08:45:55.935Z,4.20
2023-04-23T08:49:03.084Z,4.38
2023-04-23T08:52:24.168Z,5.43
2023-04-23T08:55:26.270Z,4.13
2023-04-23T08:58:28.455Z,4.25
2023-04-23T09:01:31.046Z,4.55
2023-04-23T09:04:33.617Z,4.40
2023-04-23T09:07:36.342Z,4.63
2023-04-23T09:10:41.614Z,4.03
2023-04-23T09:13:43.469Z,4.38
2023-04-23T09:16:45.450Z,4.60
2023-04-23T09:19:47.653Z,4.35
2023-04-23T09:22:51.497Z,4.25
2023-04-23T09:25:54.028Z,4.82
2023-04-23T09:28:56.057Z,4.43
2023-04-23T09:32:09.885Z,4.20
2023-04-23T09:35:21.958Z,4.32
2023-04-23T09:38:23.794Z,4.68
2023-04-23T09:41:27.786Z,4.82
2023-04-23T09:44:32.314Z,4.82
2023-04-23T09:47:38.203Z,4.82
2023-04-23T09:50:43.337Z,4.55
2023-04-23T09:53:46.089Z,4.35
2023-04-23T09:56:58.894Z,4.63
2023-04-23T10:03:15.927Z,4.07
2023-04-23T10:06:36.871Z,4.07
2023-04-23T10:09:42.303Z,4.40
2023-04-23T10:12:54.453Z,4.25
2023-04-23T10:16:14.035Z,4.20
2023-04-23T10:19:23.297Z,4.68
2023-04-23T10:22:28.027Z,4.45
2023-04-23T10:25:30.100Z,4.20
2023-04-23T10:28:33.831Z,5.55
2023-04-23T10:31:36.950Z,4.63
2023-04-23T10:34:40.650Z,3.92
2023-04-23T10:37:44.630Z,4.55
2023-04-23T10:40:51.250Z,4.10
2023-04-23T10:43:53.941Z,4.00
2023-04-23T10:46:58.774Z,3.90
2023-04-23T10:50:19.130Z,3.65
2023-04-23T10:53:22.110Z,4.05
2023-04-23T10:56:24.181Z,4.20
2023-04-23T10:59:26.966Z,4.05
2023-04-23T11:02:44.207Z,3.67
2023-04-23T11:05:47.408Z,3.38
2023-04-23T11:08:56.972Z,3.70
2023-04-23T11:12:00.030Z,3.70
2023-04-23T11:15:14.786Z,4.20
2023-04-23T11:18:16.592Z,3.67
2023-04-23T11:21:19.196Z,3.80
2023-04-23T11:24:22.865Z,3.78
2023-04-23T11:27:24.729Z,3.65
2023-04-23T11:30:29.390Z,3.60
2023-04-23T11:33:31.440Z,3.30
2023-04-23T11:36:33.937Z,3.25
2023-04-23T11:39:35.716Z,3.20
2023-04-23T11:42:47.699Z,3.35
2023-04-23T11:45:49.525Z,3.33
2023-04-23T11:48:51.448Z,4.18
2023-04-23T11:51:53.290Z,3.42
2023-04-23T11:54:55.089Z,3.70
2023-04-23T11:57:57.781Z,3.50
2023-04-23T12:01:00.775Z,3.30
2023-04-23T12:04:13.556Z,3.83
2023-04-23T12:07:25.894Z,3.40
2023-04-23T12:10:28.625Z,3.15
2023-04-23T12:13:33.781Z,3.33
2023-04-23T12:16:36.765Z,3.53
2023-04-23T12:19:40.545Z,3.30
2023-04-23T12:22:42.595Z,3.22
2023-04-23T12:25:44.435Z,3.35
2023-04-23T12:28:55.112Z,3.40
2023-04-23T12:31:59.708Z,3.67
2023-04-23T12:35:07.201Z,3.47
2023-04-23T12:41:24.077Z,3.35
2023-04-23T12:44:26.864Z,3.60
2023-04-23T12:47:28.852Z,3.95
2023-04-23T12:50:30.898Z,3.90
2023-04-23T12:53:32.699Z,3.75
2023-04-23T12:56:36.263Z,3.70
2023-04-23T12:59:38.452Z,3.75
2023-04-23T13:02:41.608Z,3.88
2023-04-23T13:05:43.575Z,3.80
2023-04-23T13:08:45.421Z,3.70
2023-04-23T13:11:49.803Z,3.70
2023-04-23T13:14:53.710Z,3.70
2023-04-23T13:17:55.545Z,3.85
2023-04-23T13:20:58.513Z,3.75
2023-04-23T13:24:00.377Z,3.90
2023-04-23T13:27:02.269Z,3.58
2023-04-23T13:30:04.492Z,3.50
2023-04-23T13:33:06.307Z,3.55
2023-04-23T13:36:09.045Z,3.92
2023-04-23T13:39:13.327Z,3.50
2023-04-23T13:42:15.095Z,4.20
2023-04-23T13:45:16.964Z,3.70
2023-04-23T13:48:19.457Z,4.50
2023-04-23T13:51:34.077Z,3.47
2023-04-23T13:54:37.731Z,3.42
2023-04-23T13:57:40.327Z,4.60
2023-04-23T14:00:43.026Z,3.63
2023-04-23T14:03:45.372Z,3.80
2023-04-23T14:06:47.163Z,3.15
2023-04-23T14:09:52.765Z,3.85
2023-04-23T14:12:55.943Z,4.50
2023-04-23T14:15:57.890Z,3.90
2023-04-23T14:18:59.771Z,3.85
2023-04-23T14:22:01.921Z,3.83
2023-04-23T14:25:09.777Z,3.40
2023-04-23T14:28:34.582Z,3.80
2023-04-23T14:31:41.099Z,3.25
2023-04-23T14:34:44.673Z,3.70
2023-04-23T14:37:46.488Z,4.43
2023-04-23T14:40:48.376Z,4.10
2023-04-23T14:43:50.400Z,3.50
2023-04-23T14:46:52.917Z,3.20
2023-04-23T14:49:55.073Z,3.13
2023-04-23T14:52:58.876Z,3.38
2023-04-23T14:56:00.735Z,3.22
2023-04-23T14:59:02.625Z,3.08
2023-04-23T15:02:04.645Z,3.20
2023-04-23T15:05:09.981Z,3.45
2023-04-23T15:08:13.188Z,3.40
2023-04-23T15:11:14.956Z,2.75
2023-04-23T15:14:26.029Z,3.33
2023-04-23T15:17:27.871Z,3.50
2023-04-23T15:20:29.678Z,3.92
2023-04-23T15:23:31.966Z,3.80
2023-04-23T15:26:34.190Z,5.18
2023-04-23T15:29:36.002Z,3.80
2023-04-23T15:32:37.890Z,3.22
2023-04-23T15:35:39.740Z,3.20
2023-04-23T15:38:41.796Z,3.30
2023-04-23T15:41:45.498Z,3.15
2023-04-23T15:44:48.846Z,3.58
2023-04-23T15:47:53.907Z,3.50
2023-04-23T15:50:57.174Z,4.43
2023-04-23T15:53:59.102Z,4.07
2023-04-23T15:57:01.809Z,3.53
2023-04-23T16:00:04.233Z,3.67
2023-04-23T16:03:15.205Z,3.45
2023-04-23T16:06:17.291Z,3.55
2023-04-23T16:09:19.123Z,3.85
2023-04-23T16:12:21.191Z,4.22
2023-04-23T16:15:23.220Z,3.60
2023-04-23T16:18:25.066Z,3.55
2023-04-23T16:21:28.155Z,2.95
2023-04-23T16:24:30.160Z,3.03
2023-04-23T16:27:31.993Z,3.42
2023-04-23T16:30:33.918Z,3.80
2023-04-23T16:33:35.758Z,4.20
2023-04-23T16:36:37.763Z,3.58
2023-04-23T16:39:40.019Z,4.00
2023-04-23T16:42:42.860Z,4.03
2023-04-23T16:45:44.654Z,4.00
2023-04-23T16:48:46.867Z,4.70
2023-04-23T16:51:49.956Z,5.72
2023-04-23T16:55:01.767Z,4.38
2023-04-23T16:58:04.879Z,4.13
2023-04-23T17:01:10.876Z,4.20
2023-04-23T17:04:12.853Z,3.75
2023-04-23T17:07:15.265Z,3.83
2023-04-23T17:10:18.842Z,4.35
2023-04-23T17:13:20.679Z,4.25
2023-04-23T17:16:23.083Z,4.53
2023-04-23T17:19:24.963Z,4.57
2023-04-23T17:22:26.831Z,4.40
2023-04-23T17:25:28.785Z,4.53
2023-04-23T17:28:32.156Z,4.28
2023-04-23T17:31:35.933Z,4.10
2023-04-23T17:34:39.573Z,4.63
2023-04-23T17:37:41.622Z,4.32
2023-04-23T17:40:43.418Z,3.90
2023-04-23T17:43:45.242Z,4.35
2023-04-23T17:46:47.637Z,4.25
2023-04-23T17:49:50.822Z,4.35
2023-04-23T17:52:52.732Z,4.95
2023-04-23T17:55:58.668Z,4.60
2023-04-23T17:59:00.751Z,5.43
2023-04-23T18:02:04.142Z,5.90
2023-04-23T18:05:11.471Z,6.50
2023-04-23T18:08:17.351Z,6.60
2023-04-23T18:11:19.219Z,6.07
2023-04-23T18:14:21.091Z,5.82
2023-04-23T18:17:25.811Z,5.15
2023-04-23T18:20:28.063Z,5.40
2023-04-23T18:23:31.306Z,4.97
2023-04-23T18:26:33.919Z,5.15
2023-04-23T18:29:35.995Z,5.03
2023-04-23T18:32:43.178Z,5.00
2023-04-23T18:35:48.131Z,5.30
2023-04-23T18:38:50.627Z,5.10
2023-04-23T18:41:52.615Z,5.15
2023-04-23T18:44:55.636Z,4.65
2023-04-23T18:48:03.678Z,4.70
2023-04-23T18:51:19.792Z,5.18
2023-04-23T18:54:21.991Z,4.85
2023-04-23T18:57:24.206Z,5.13
2023-04-23T19:00:26.190Z,5.10
2023-04-23T19:06:31.420Z,6.65
2023-04-23T19:09:33.227Z,6.10
2023-04-23T19:12:35.029Z,6.28
2023-04-23T19:15:36.842Z,5.32
2023-04-23T19:18:38.643Z,5.07
2023-04-23T19:21:40.529Z,4.68
2023-04-23T19:24:42.299Z,4.50
2023-04-23T19:27:44.132Z,4.75
2023-04-23T19:30:46.170Z,5.00
2023-04-23T19:33:48.188Z,4.07
2023-04-23T19:36:49.932Z,4.60
2023-04-23T19:39:51.876Z,4.35
2023-04-23T19:42:53.649Z,4.57
2023-04-23T19:45:57.104Z,4.63
2023-04-23T19:48:59.566Z,4.35
2023-04-23T19:52:03.449Z,4.78
2023-04-23T19:55:05.730Z,4.53
2023-04-23T19:58:07.554Z,4.47
2023-04-23T20:01:10.773Z,4.60
2023-04-23T20:04:12.804Z,4.57
2023-04-23T20:07:14.758Z,4.50
2023-04-23T20:10:17.596Z,4.40
2023-04-23T20:13:20.604Z,4.10
2023-04-23T20:16:23.248Z,4.50
2023-04-23T20:19:27.887Z,4.60
2023-04-23T20:22:30.706Z,4.25
2023-04-23T20:25:32.536Z,4.22
2023-04-23T20:28:34.561Z,3.95
2023-04-23T20:31:36.757Z,3.80
2023-04-23T20:34:38.590Z,4.00
2023-04-23T20:37:40.847Z,3.85
2023-04-23T20:40:42.868Z,4.60
2023-04-23T20:43:45.085Z,4.13
2023-04-23T20:46:47.395Z,4.10
2023-04-23T20:49:49.119Z,3.83
2023-04-23T20:52:50.880Z,4.05
2023-04-23T20:55:52.690Z,4.90
2023-04-23T20:58:54.556Z,4.60
2023-04-23T21:01:56.395Z,3.63
2023-04-23T21:04:58.210Z,4.55
2023-04-23T21:07:59.948Z,4.10
2023-04-23T21:11:02.037Z,3.88
2023-04-23T21:14:08.502Z,4.32
2023-04-23T21:17:10.620Z,4.10
2023-04-23T21:20:12.519Z,3.83
2023-04-23T21:23:14.386Z,3.72
2023-04-23T21:26:16.252Z,4.28
2023-04-23T21:29:18.052Z,3.95
2023-04-23T21:32:19.918Z,3.90
2023-04-23T21:35:21.743Z,4.05
2023-04-23T21:38:23.506Z,4.35
2023-04-23T21:41:25.757Z,4.00
2023-04-23T21:44:28.702Z,3.88
2023-04-23T21:47:30.449Z,4.97
2023-04-23T21:50:33.233Z,3.90
2023-04-23T21:53:35.149Z,3.90
2023-04-23T21:56:37.287Z,4.10
2023-04-23T21:59:39.089Z,4.10
2023-04-23T22:02:46.514Z,3.72
2023-04-23T22:05:49.077Z,3.85
2023-04-23T22:08:52.462Z,4.15
2023-04-23T22:12:01.902Z,3.75
2023-04-23T22:15:06.709Z,3.80
2023-04-23T22:18:08.659Z,4.07
2023-04-23T22:21:10.480Z,3.72
2023-04-23T22:24:12.249Z,4.10
2023-04-23T22:27:14.430Z,3.97
2023-04-23T22:30:16.374Z,3.83
2023-04-23T22:33:18.346Z,3.95
2023-04-23T22:36:20.345Z,3.92
2023-04-23T22:39:22.177Z,3.83
2023-04-23T22:42:25.707Z,3.92
2023-04-23T22:45:27.505Z,4.22
2023-04-23T22:48:29.341Z,4.25
2023-04-23T22:51:33.631Z,4.28
2023-04-23T22:54:35.599Z,3.55
2023-04-23T22:57:37.403Z,4.50
2023-04-23T23:00:39.363Z,4.05
2023-04-23T23:03:41.207Z,4.00
2023-04-23T23:06:43.342Z,3.80
2023-04-23T23:09:45.468Z,4.35
2023-04-23T23:12:47.311Z,3.97
2023-04-23T23:15:49.118Z,4.05
2023-04-23T23:18:51.260Z,4.25
2023-04-23T23:21:53.216Z,3.95
2023-04-23T23:24:55.149Z,3.78
2023-04-23T23:27:57.387Z,4.15
2023-04-23T23:30:59.490Z,4.43
2023-04-23T23:34:01.360Z,4.05
2023-04-23T23:37:03.167Z,3.80
2023-04-23T23:40:05.796Z,4.32
2023-04-23T23:43:08.034Z,4.00
2023-04-23T23:46:10.670Z,5.43
2023-04-23T23:49:12.581Z,4.03
2023-04-23T23:52:14.379Z,4.10
2023-04-23T23:55:16.409Z,4.38
2023-04-23T23:58:18.206Z,3.92
